sensor_id;sensor_type;location;lat;lon;timestamp;temperature;humidity
51486;DHT22;37565;51.352;6.412;2022-10-15T00:00:46;17.70;99.90
51486;DHT22;37565;51.352;6.412;2022-10-15T00:03:14;17.70;99.90
51486;DHT22;37565;51.352;6.412;2022-10-15T00:05:42;17.70;99.90
51486;DHT22;37565;51.352;6.412;2022-10-15T00:08:11;17.70;99.90
51486;DHT22;37565;51.352;6.412;2022-10-15T00:10:39;18.20;99.90
51486;DHT22;37565;51.352;6.412;2022-10-15T00:13:07;17.70;99.90
51486;DHT22;37565;51.352;6.412;2022-10-15T00:15:36;17.70;99.90
51486;DHT22;37565;51.352;6.412;2022-10-15T00:18:04;17.70;99.90
51486;DHT22;37565;51.352;6.412;2022-10-15T00:20:32;17.70;99.90
51486;DHT22;37565;51.352;6.412;2022-10-15T00:23:00;17.70;99.90
51486;DHT22;37565;51.352;6.412;2022-10-15T00:25:28;17.70;99.90
51486;DHT22;37565;51.352;6.412;2022-10-15T00:27:56;17.70;99.90
51486;DHT22;37565;51.352;6.412;2022-10-15T00:30:24;17.70;99.90
51486;DHT22;37565;51.352;6.412;2022-10-15T00:32:53;17.70;99.90
51486;DHT22;37565;51.352;6.412;2022-10-15T00:35:21;17.70;99.90
51486;DHT22;37565;51.352;6.412;2022-10-15T00:37:49;17.70;99.90
51486;DHT22;37565;51.352;6.412;2022-10-15T00:40:17;17.70;99.90
51486;DHT22;37565;51.352;6.412;2022-10-15T00:42:45;17.60;99.90
51486;DHT22;37565;51.352;6.412;2022-10-15T00:45:14;17.70;99.90
51486;DHT22;37565;51.352;6.412;2022-10-15T00:47:45;17.70;99.90
51486;DHT22;37565;51.352;6.412;2022-10-15T00:50:17;17.70;99.90
51486;DHT22;37565;51.352;6.412;2022-10-15T00:52:56;17.70;99.90
51486;DHT22;37565;51.352;6.412;2022-10-15T00:55:28;17.70;99.90
51486;DHT22;37565;51.352;6.412;2022-10-15T00:57:59;17.70;99.90
51486;DHT22;37565;51.352;6.412;2022-10-15T01:00:28;17.70;99.90
51486;DHT22;37565;51.352;6.412;2022-10-15T01:02:56;17.70;99.90
51486;DHT22;37565;51.352;6.412;2022-10-15T01:05:26;17.70;99.90
51486;DHT22;37565;51.352;6.412;2022-10-15T01:07:54;17.70;99.90
51486;DHT22;37565;51.352;6.412;2022-10-15T01:10:25;17.30;99.90
51486;DHT22;37565;51.352;6.412;2022-10-15T01:12:59;17.60;99.90
51486;DHT22;37565;51.352;6.412;2022-10-15T01:15:35;17.70;99.90
51486;DHT22;37565;51.352;6.412;2022-10-15T01:18:09;17.60;99.90
51486;DHT22;37565;51.352;6.412;2022-10-15T01:21:00;17.60;99.90
51486;DHT22;37565;51.352;6.412;2022-10-15T01:23:58;17.70;99.90
51486;DHT22;37565;51.352;6.412;2022-10-15T01:29:57;17.70;99.90
51486;DHT22;37565;51.352;6.412;2022-10-15T01:32:34;17.60;99.90
51486;DHT22;37565;51.352;6.412;2022-10-15T01:35:08;17.70;99.90
51486;DHT22;37565;51.352;6.412;2022-10-15T01:37:41;17.60;99.90
51486;DHT22;37565;51.352;6.412;2022-10-15T01:40:14;17.60;99.90
51486;DHT22;37565;51.352;6.412;2022-10-15T01:42:46;17.60;99.90
51486;DHT22;37565;51.352;6.412;2022-10-15T01:45:18;17.60;99.90
51486;DHT22;37565;51.352;6.412;2022-10-15T01:47:51;17.60;99.90
51486;DHT22;37565;51.352;6.412;2022-10-15T01:50:22;17.70;99.90
51486;DHT22;37565;51.352;6.412;2022-10-15T01:52:51;17.60;99.90
51486;DHT22;37565;51.352;6.412;2022-10-15T01:55:22;17.60;99.90
51486;DHT22;37565;51.352;6.412;2022-10-15T01:57:53;17.60;99.90
51486;DHT22;37565;51.352;6.412;2022-10-15T02:00:22;17.60;99.90
51486;DHT22;37565;51.352;6.412;2022-10-15T02:02:52;17.60;99.90
51486;DHT22;37565;51.352;6.412;2022-10-15T02:05:24;17.60;99.90
51486;DHT22;37565;51.352;6.412;2022-10-15T02:07:57;17.60;99.90
51486;DHT22;37565;51.352;6.412;2022-10-15T02:10:29;17.60;99.90
51486;DHT22;37565;51.352;6.412;2022-10-15T02:13:06;17.60;99.90
51486;DHT22;37565;51.352;6.412;2022-10-15T02:15:43;17.60;99.90
51486;DHT22;37565;51.352;6.412;2022-10-15T02:18:17;17.60;99.90
51486;DHT22;37565;51.352;6.412;2022-10-15T02:20:50;17.60;99.90
51486;DHT22;37565;51.352;6.412;2022-10-15T02:23:25;17.60;99.90
51486;DHT22;37565;51.352;6.412;2022-10-15T02:25:55;17.60;99.90
51486;DHT22;37565;51.352;6.412;2022-10-15T02:28:24;17.60;99.90
51486;DHT22;37565;51.352;6.412;2022-10-15T02:30:55;17.60;99.90
51486;DHT22;37565;51.352;6.412;2022-10-15T02:33:27;17.70;99.90
51486;DHT22;37565;51.352;6.412;2022-10-15T02:35:57;17.60;99.90
51486;DHT22;37565;51.352;6.412;2022-10-15T02:38:26;17.60;99.90
51486;DHT22;37565;51.352;6.412;2022-10-15T02:40:57;17.60;99.90
51486;DHT22;37565;51.352;6.412;2022-10-15T02:43:25;17.60;99.90
51486;DHT22;37565;51.352;6.412;2022-10-15T02:45:53;17.60;99.90
51486;DHT22;37565;51.352;6.412;2022-10-15T02:48:21;17.60;99.90
51486;DHT22;37565;51.352;6.412;2022-10-15T02:50:50;17.60;99.90
51486;DHT22;37565;51.352;6.412;2022-10-15T02:53:18;17.60;99.90
51486;DHT22;37565;51.352;6.412;2022-10-15T02:55:46;17.60;99.90
51486;DHT22;37565;51.352;6.412;2022-10-15T02:58:14;17.60;99.90
51486;DHT22;37565;51.352;6.412;2022-10-15T03:00:42;17.60;99.90
51486;DHT22;37565;51.352;6.412;2022-10-15T03:03:10;17.60;99.90
51486;DHT22;37565;51.352;6.412;2022-10-15T03:05:38;17.60;99.90
51486;DHT22;37565;51.352;6.412;2022-10-15T03:08:07;17.60;99.90
51486;DHT22;37565;51.352;6.412;2022-10-15T03:10:35;17.60;99.90
51486;DHT22;37565;51.352;6.412;2022-10-15T03:13:04;17.60;99.90
51486;DHT22;37565;51.352;6.412;2022-10-15T03:15:32;17.60;99.90
51486;DHT22;37565;51.352;6.412;2022-10-15T03:18:00;17.60;99.90
51486;DHT22;37565;51.352;6.412;2022-10-15T03:20:28;17.60;99.90
51486;DHT22;37565;51.352;6.412;2022-10-15T03:22:56;17.60;99.90
51486;DHT22;37565;51.352;6.412;2022-10-15T03:25:25;17.60;99.90
51486;DHT22;37565;51.352;6.412;2022-10-15T03:27:53;17.60;99.90
51486;DHT22;37565;51.352;6.412;2022-10-15T03:30:21;17.60;99.90
51486;DHT22;37565;51.352;6.412;2022-10-15T03:32:49;17.60;99.90
51486;DHT22;37565;51.352;6.412;2022-10-15T03:35:17;17.60;99.90
51486;DHT22;37565;51.352;6.412;2022-10-15T03:37:45;17.60;99.90
51486;DHT22;37565;51.352;6.412;2022-10-15T03:40:13;17.60;99.90
51486;DHT22;37565;51.352;6.412;2022-10-15T03:42:42;17.60;99.90
51486;DHT22;37565;51.352;6.412;2022-10-15T03:45:10;17.60;99.90
51486;DHT22;37565;51.352;6.412;2022-10-15T03:47:38;17.60;99.90
51486;DHT22;37565;51.352;6.412;2022-10-15T03:50:06;17.60;99.90
51486;DHT22;37565;51.352;6.412;2022-10-15T03:52:35;17.60;99.90
51486;DHT22;37565;51.352;6.412;2022-10-15T03:55:04;17.60;99.90
51486;DHT22;37565;51.352;6.412;2022-10-15T03:57:32;17.60;99.90
51486;DHT22;37565;51.352;6.412;2022-10-15T04:00:04;17.60;99.90
51486;DHT22;37565;51.352;6.412;2022-10-15T04:02:32;17.60;99.90
51486;DHT22;37565;51.352;6.412;2022-10-15T04:05:00;17.60;99.90
51486;DHT22;37565;51.352;6.412;2022-10-15T04:07:28;17.60;99.90
51486;DHT22;37565;51.352;6.412;2022-10-15T04:09:56;17.60;99.90
51486;DHT22;37565;51.352;6.412;2022-10-15T04:12:24;17.60;99.90
51486;DHT22;37565;51.352;6.412;2022-10-15T04:14:52;17.60;99.90
51486;DHT22;37565;51.352;6.412;2022-10-15T04:17:22;17.60;99.90
51486;DHT22;37565;51.352;6.412;2022-10-15T04:19:50;17.20;99.90
51486;DHT22;37565;51.352;6.412;2022-10-15T04:22:18;17.60;99.90
51486;DHT22;37565;51.352;6.412;2022-10-15T04:24:46;17.60;99.90
51486;DHT22;37565;51.352;6.412;2022-10-15T04:27:14;17.60;99.90
51486;DHT22;37565;51.352;6.412;2022-10-15T04:29:42;17.60;99.90
51486;DHT22;37565;51.352;6.412;2022-10-15T04:32:12;17.60;99.90
51486;DHT22;37565;51.352;6.412;2022-10-15T04:34:42;17.60;99.90
51486;DHT22;37565;51.352;6.412;2022-10-15T04:37:11;17.60;99.90
51486;DHT22;37565;51.352;6.412;2022-10-15T04:39:39;17.40;99.90
51486;DHT22;37565;51.352;6.412;2022-10-15T04:42:07;17.60;99.90
51486;DHT22;37565;51.352;6.412;2022-10-15T04:44:35;17.60;99.90
51486;DHT22;37565;51.352;6.412;2022-10-15T04:47:03;17.60;99.90
51486;DHT22;37565;51.352;6.412;2022-10-15T04:49:30;17.60;99.90
51486;DHT22;37565;51.352;6.412;2022-10-15T04:52:00;17.60;99.90
51486;DHT22;37565;51.352;6.412;2022-10-15T04:54:28;17.60;99.90
51486;DHT22;37565;51.352;6.412;2022-10-15T04:56:56;17.60;99.90
51486;DHT22;37565;51.352;6.412;2022-10-15T04:59:24;17.60;99.90
51486;DHT22;37565;51.352;6.412;2022-10-15T05:01:52;17.60;99.90
51486;DHT22;37565;51.352;6.412;2022-10-15T05:04:20;17.60;99.90
51486;DHT22;37565;51.352;6.412;2022-10-15T05:06:48;17.50;99.90
51486;DHT22;37565;51.352;6.412;2022-10-15T05:09:17;17.60;99.90
51486;DHT22;37565;51.352;6.412;2022-10-15T05:11:45;17.60;99.90
51486;DHT22;37565;51.352;6.412;2022-10-15T05:14:13;17.50;99.90
51486;DHT22;37565;51.352;6.412;2022-10-15T05:16:42;17.50;99.90
51486;DHT22;37565;51.352;6.412;2022-10-15T05:19:10;17.50;99.90
51486;DHT22;37565;51.352;6.412;2022-10-15T05:21:38;17.50;99.90
51486;DHT22;37565;51.352;6.412;2022-10-15T05:24:06;17.50;99.90
51486;DHT22;37565;51.352;6.412;2022-10-15T05:26:36;17.60;99.90
51486;DHT22;37565;51.352;6.412;2022-10-15T05:29:04;17.60;99.90
51486;DHT22;37565;51.352;6.412;2022-10-15T05:31:32;17.60;99.90
51486;DHT22;37565;51.352;6.412;2022-10-15T05:34:05;17.60;99.90
51486;DHT22;37565;51.352;6.412;2022-10-15T05:36:33;17.60;99.90
51486;DHT22;37565;51.352;6.412;2022-10-15T05:39:03;17.60;99.90
51486;DHT22;37565;51.352;6.412;2022-10-15T05:41:32;17.60;99.90
51486;DHT22;37565;51.352;6.412;2022-10-15T05:44:01;17.60;99.90
51486;DHT22;37565;51.352;6.412;2022-10-15T05:46:29;17.50;99.90
51486;DHT22;37565;51.352;6.412;2022-10-15T05:48:58;17.50;99.90
51486;DHT22;37565;51.352;6.412;2022-10-15T05:51:26;17.50;99.90
51486;DHT22;37565;51.352;6.412;2022-10-15T05:53:56;17.50;99.90
51486;DHT22;37565;51.352;6.412;2022-10-15T05:56:25;17.60;99.90
51486;DHT22;37565;51.352;6.412;2022-10-15T05:58:53;17.50;99.90
51486;DHT22;37565;51.352;6.412;2022-10-15T06:01:23;17.50;99.90
51486;DHT22;37565;51.352;6.412;2022-10-15T06:03:51;17.50;99.90
51486;DHT22;37565;51.352;6.412;2022-10-15T06:06:20;17.50;99.90
51486;DHT22;37565;51.352;6.412;2022-10-15T06:08:49;17.50;99.90
51486;DHT22;37565;51.352;6.412;2022-10-15T06:11:17;17.50;99.90
51486;DHT22;37565;51.352;6.412;2022-10-15T06:13:46;17.50;99.90
51486;DHT22;37565;51.352;6.412;2022-10-15T06:16:16;17.50;99.90
51486;DHT22;37565;51.352;6.412;2022-10-15T06:18:51;17.50;99.90
51486;DHT22;37565;51.352;6.412;2022-10-15T06:21:20;17.60;99.90
51486;DHT22;37565;51.352;6.412;2022-10-15T06:23:48;17.50;99.90
51486;DHT22;37565;51.352;6.412;2022-10-15T06:26:16;17.50;99.90
51486;DHT22;37565;51.352;6.412;2022-10-15T06:28:44;17.50;99.90
51486;DHT22;37565;51.352;6.412;2022-10-15T06:31:12;17.50;99.90
51486;DHT22;37565;51.352;6.412;2022-10-15T06:33:39;17.50;99.90
51486;DHT22;37565;51.352;6.412;2022-10-15T06:36:10;17.60;99.90
51486;DHT22;37565;51.352;6.412;2022-10-15T06:38:39;17.60;99.90
51486;DHT22;37565;51.352;6.412;2022-10-15T06:41:09;17.50;99.90
51486;DHT22;37565;51.352;6.412;2022-10-15T06:43:37;17.50;99.90
51486;DHT22;37565;51.352;6.412;2022-10-15T06:46:06;17.50;99.90
51486;DHT22;37565;51.352;6.412;2022-10-15T06:48:34;17.50;99.90
51486;DHT22;37565;51.352;6.412;2022-10-15T06:51:02;17.60;99.90
51486;DHT22;37565;51.352;6.412;2022-10-15T06:53:32;17.60;99.90
51486;DHT22;37565;51.352;6.412;2022-10-15T06:56:01;17.60;99.90
51486;DHT22;37565;51.352;6.412;2022-10-15T06:58:29;17.60;99.90
51486;DHT22;37565;51.352;6.412;2022-10-15T07:01:01;17.60;99.90
51486;DHT22;37565;51.352;6.412;2022-10-15T07:03:29;17.60;99.90
51486;DHT22;37565;51.352;6.412;2022-10-15T07:06:00;17.60;99.90
51486;DHT22;37565;51.352;6.412;2022-10-15T07:08:29;17.60;99.90
51486;DHT22;37565;51.352;6.412;2022-10-15T07:11:00;17.60;99.90
51486;DHT22;37565;51.352;6.412;2022-10-15T07:13:28;17.60;99.90
51486;DHT22;37565;51.352;6.412;2022-10-15T07:15:56;17.60;99.90
51486;DHT22;37565;51.352;6.412;2022-10-15T07:18:24;17.60;99.90
51486;DHT22;37565;51.352;6.412;2022-10-15T07:20:52;17.60;99.90
51486;DHT22;37565;51.352;6.412;2022-10-15T07:23:20;17.70;99.90
51486;DHT22;37565;51.352;6.412;2022-10-15T07:25:53;17.60;99.90
51486;DHT22;37565;51.352;6.412;2022-10-15T07:28:23;17.70;99.90
51486;DHT22;37565;51.352;6.412;2022-10-15T07:30:51;17.70;99.90
51486;DHT22;37565;51.352;6.412;2022-10-15T07:33:19;17.70;99.90
51486;DHT22;37565;51.352;6.412;2022-10-15T07:35:47;17.70;99.90
51486;DHT22;37565;51.352;6.412;2022-10-15T07:38:15;17.70;99.90
51486;DHT22;37565;51.352;6.412;2022-10-15T07:40:44;17.70;99.90
51486;DHT22;37565;51.352;6.412;2022-10-15T07:43:11;17.70;99.90
51486;DHT22;37565;51.352;6.412;2022-10-15T07:45:46;17.70;99.90
51486;DHT22;37565;51.352;6.412;2022-10-15T07:48:14;17.70;99.90
51486;DHT22;37565;51.352;6.412;2022-10-15T07:50:42;17.70;99.90
51486;DHT22;37565;51.352;6.412;2022-10-15T07:53:10;17.70;99.90
51486;DHT22;37565;51.352;6.412;2022-10-15T07:55:38;17.70;99.90
51486;DHT22;37565;51.352;6.412;2022-10-15T07:58:05;17.70;99.90
51486;DHT22;37565;51.352;6.412;2022-10-15T08:00:34;17.70;99.90
51486;DHT22;37565;51.352;6.412;2022-10-15T08:03:03;17.70;99.90
51486;DHT22;37565;51.352;6.412;2022-10-15T08:05:32;17.70;99.90
51486;DHT22;37565;51.352;6.412;2022-10-15T08:08:00;17.70;99.90
51486;DHT22;37565;51.352;6.412;2022-10-15T08:10:28;17.70;99.90
51486;DHT22;37565;51.352;6.412;2022-10-15T08:12:56;17.70;99.90
51486;DHT22;37565;51.352;6.412;2022-10-15T08:15:24;17.70;99.90
51486;DHT22;37565;51.352;6.412;2022-10-15T08:17:52;17.70;99.90
51486;DHT22;37565;51.352;6.412;2022-10-15T08:20:21;17.70;99.90
51486;DHT22;37565;51.352;6.412;2022-10-15T08:22:49;17.70;99.90
51486;DHT22;37565;51.352;6.412;2022-10-15T08:25:17;17.80;99.90
51486;DHT22;37565;51.352;6.412;2022-10-15T08:27:45;17.80;99.90
51486;DHT22;37565;51.352;6.412;2022-10-15T08:30:12;17.80;99.90
51486;DHT22;37565;51.352;6.412;2022-10-15T08:32:40;17.80;99.90
51486;DHT22;37565;51.352;6.412;2022-10-15T08:35:08;17.90;99.90
51486;DHT22;37565;51.352;6.412;2022-10-15T08:37:37;17.90;99.90
51486;DHT22;37565;51.352;6.412;2022-10-15T08:40:08;17.90;99.90
51486;DHT22;37565;51.352;6.412;2022-10-15T08:42:39;17.80;99.90
51486;DHT22;37565;51.352;6.412;2022-10-15T08:45:10;17.80;99.90
51486;DHT22;37565;51.352;6.412;2022-10-15T08:47:44;17.90;99.90
51486;DHT22;37565;51.352;6.412;2022-10-15T08:50:21;17.90;99.90
51486;DHT22;37565;51.352;6.412;2022-10-15T08:52:56;17.90;99.90
51486;DHT22;37565;51.352;6.412;2022-10-15T08:55:28;17.90;99.90
51486;DHT22;37565;51.352;6.412;2022-10-15T08:58:04;17.90;99.90
51486;DHT22;37565;51.352;6.412;2022-10-15T09:00:41;17.90;99.90
51486;DHT22;37565;51.352;6.412;2022-10-15T09:03:20;17.90;99.90
51486;DHT22;37565;51.352;6.412;2022-10-15T09:05:54;18.00;99.90
51486;DHT22;37565;51.352;6.412;2022-10-15T09:08:28;18.00;99.90
51486;DHT22;37565;51.352;6.412;2022-10-15T09:11:00;18.00;99.90
51486;DHT22;37565;51.352;6.412;2022-10-15T09:13:36;18.00;99.90
51486;DHT22;37565;51.352;6.412;2022-10-15T09:16:11;18.00;99.90
51486;DHT22;37565;51.352;6.412;2022-10-15T09:18:42;18.00;99.90
51486;DHT22;37565;51.352;6.412;2022-10-15T09:21:12;18.00;99.90
51486;DHT22;37565;51.352;6.412;2022-10-15T09:23:42;17.90;99.90
51486;DHT22;37565;51.352;6.412;2022-10-15T09:26:23;18.00;99.90
51486;DHT22;37565;51.352;6.412;2022-10-15T09:29:00;17.90;99.90
51486;DHT22;37565;51.352;6.412;2022-10-15T09:31:34;17.90;99.90
51486;DHT22;37565;51.352;6.412;2022-10-15T09:34:11;17.90;99.90
51486;DHT22;37565;51.352;6.412;2022-10-15T09:36:42;18.00;99.90
51486;DHT22;37565;51.352;6.412;2022-10-15T09:39:31;17.90;99.90
51486;DHT22;37565;51.352;6.412;2022-10-15T09:42:10;17.90;99.90
51486;DHT22;37565;51.352;6.412;2022-10-15T09:44:43;17.90;99.90
51486;DHT22;37565;51.352;6.412;2022-10-15T09:47:19;17.90;99.90
51486;DHT22;37565;51.352;6.412;2022-10-15T09:49:49;17.90;99.90
51486;DHT22;37565;51.352;6.412;2022-10-15T09:52:23;17.90;99.90
51486;DHT22;37565;51.352;6.412;2022-10-15T09:55:02;17.90;99.90
51486;DHT22;37565;51.352;6.412;2022-10-15T09:57:32;18.00;99.90
51486;DHT22;37565;51.352;6.412;2022-10-15T10:00:04;17.90;99.90
51486;DHT22;37565;51.352;6.412;2022-10-15T10:02:34;17.90;99.90
51486;DHT22;37565;51.352;6.412;2022-10-15T10:05:18;18.00;99.90
51486;DHT22;37565;51.352;6.412;2022-10-15T10:07:47;17.90;99.90
51486;DHT22;37565;51.352;6.412;2022-10-15T10:10:23;17.90;99.90
51486;DHT22;37565;51.352;6.412;2022-10-15T10:12:53;17.90;99.90
51486;DHT22;37565;51.352;6.412;2022-10-15T10:15:30;18.00;99.90
51486;DHT22;37565;51.352;6.412;2022-10-15T10:17:59;17.90;99.90
51486;DHT22;37565;51.352;6.412;2022-10-15T10:20:28;17.90;99.90
51486;DHT22;37565;51.352;6.412;2022-10-15T10:22:57;17.90;99.90
51486;DHT22;37565;51.352;6.412;2022-10-15T10:25:37;17.90;99.90
51486;DHT22;37565;51.352;6.412;2022-10-15T10:28:16;17.90;99.90
51486;DHT22;37565;51.352;6.412;2022-10-15T10:30:51;17.90;99.90
51486;DHT22;37565;51.352;6.412;2022-10-15T10:33:24;17.90;99.90
51486;DHT22;37565;51.352;6.412;2022-10-15T10:35:53;17.90;99.90
51486;DHT22;37565;51.352;6.412;2022-10-15T10:38:24;17.90;99.90
51486;DHT22;37565;51.352;6.412;2022-10-15T10:40:55;17.90;99.90
51486;DHT22;37565;51.352;6.412;2022-10-15T10:43:31;17.90;99.90
51486;DHT22;37565;51.352;6.412;2022-10-15T10:46:17;17.90;99.90
51486;DHT22;37565;51.352;6.412;2022-10-15T10:48:46;17.90;99.90
51486;DHT22;37565;51.352;6.412;2022-10-15T10:51:17;17.90;99.90
51486;DHT22;37565;51.352;6.412;2022-10-15T10:53:51;17.90;99.90
51486;DHT22;37565;51.352;6.412;2022-10-15T10:56:23;17.90;99.90
51486;DHT22;37565;51.352;6.412;2022-10-15T10:58:56;17.90;99.90
51486;DHT22;37565;51.352;6.412;2022-10-15T11:01:26;17.90;99.90
51486;DHT22;37565;51.352;6.412;2022-10-15T11:03:55;17.90;99.90
51486;DHT22;37565;51.352;6.412;2022-10-15T11:06:48;17.90;99.90
51486;DHT22;37565;51.352;6.412;2022-10-15T11:09:34;17.90;99.90
51486;DHT22;37565;51.352;6.412;2022-10-15T11:12:16;17.90;99.90
51486;DHT22;37565;51.352;6.412;2022-10-15T11:14:53;17.90;99.90
51486;DHT22;37565;51.352;6.412;2022-10-15T11:17:28;17.90;99.90
51486;DHT22;37565;51.352;6.412;2022-10-15T11:20:07;17.90;99.90
51486;DHT22;37565;51.352;6.412;2022-10-15T11:23:08;17.90;99.90
51486;DHT22;37565;51.352;6.412;2022-10-15T11:25:43;17.90;99.90
51486;DHT22;37565;51.352;6.412;2022-10-15T11:28:17;18.00;99.90
51486;DHT22;37565;51.352;6.412;2022-10-15T11:30:51;17.90;99.90
51486;DHT22;37565;51.352;6.412;2022-10-15T11:33:32;18.00;99.90
51486;DHT22;37565;51.352;6.412;2022-10-15T11:36:17;18.00;99.90
51486;DHT22;37565;51.352;6.412;2022-10-15T11:38:54;18.00;99.90
51486;DHT22;37565;51.352;6.412;2022-10-15T11:41:35;17.90;99.90
51486;DHT22;37565;51.352;6.412;2022-10-15T11:47:15;17.90;99.90
51486;DHT22;37565;51.352;6.412;2022-10-15T11:49:52;18.00;99.90
51486;DHT22;37565;51.352;6.412;2022-10-15T11:52:34;18.00;99.90
51486;DHT22;37565;51.352;6.412;2022-10-15T11:55:10;17.90;99.90
51486;DHT22;37565;51.352;6.412;2022-10-15T11:57:41;17.90;99.90
51486;DHT22;37565;51.352;6.412;2022-10-15T12:00:24;18.00;99.90
51486;DHT22;37565;51.352;6.412;2022-10-15T12:03:00;18.00;99.90
51486;DHT22;37565;51.352;6.412;2022-10-15T12:05:34;18.00;99.90
51486;DHT22;37565;51.352;6.412;2022-10-15T12:08:04;18.00;99.90
51486;DHT22;37565;51.352;6.412;2022-10-15T12:10:46;18.00;99.90
51486;DHT22;37565;51.352;6.412;2022-10-15T12:13:24;18.00;99.90
51486;DHT22;37565;51.352;6.412;2022-10-15T12:16:01;18.00;99.90
51486;DHT22;37565;51.352;6.412;2022-10-15T12:18:34;18.00;99.90
51486;DHT22;37565;51.352;6.412;2022-10-15T12:21:28;18.10;99.90
51486;DHT22;37565;51.352;6.412;2022-10-15T12:23:56;18.00;99.90
51486;DHT22;37565;51.352;6.412;2022-10-15T12:26:29;18.00;99.90
51486;DHT22;37565;51.352;6.412;2022-10-15T12:29:00;18.20;99.90
51486;DHT22;37565;51.352;6.412;2022-10-15T12:31:50;18.00;99.90
51486;DHT22;37565;51.352;6.412;2022-10-15T12:34:31;18.00;99.90
51486;DHT22;37565;51.352;6.412;2022-10-15T12:37:05;18.00;99.90
51486;DHT22;37565;51.352;6.412;2022-10-15T12:39:37;18.00;99.90
51486;DHT22;37565;51.352;6.412;2022-10-15T12:42:27;18.00;99.90
51486;DHT22;37565;51.352;6.412;2022-10-15T12:44:58;18.00;99.90
51486;DHT22;37565;51.352;6.412;2022-10-15T12:47:54;18.00;99.90
51486;DHT22;37565;51.352;6.412;2022-10-15T12:50:24;18.00;99.90
51486;DHT22;37565;51.352;6.412;2022-10-15T12:53:00;18.00;99.90
51486;DHT22;37565;51.352;6.412;2022-10-15T12:55:33;18.10;99.90
51486;DHT22;37565;51.352;6.412;2022-10-15T12:58:03;18.10;99.90
51486;DHT22;37565;51.352;6.412;2022-10-15T13:00:37;18.10;99.90
51486;DHT22;37565;51.352;6.412;2022-10-15T13:03:26;18.10;99.90
51486;DHT22;37565;51.352;6.412;2022-10-15T13:09:21;18.10;99.90
51486;DHT22;37565;51.352;6.412;2022-10-15T13:11:52;18.10;99.90
51486;DHT22;37565;51.352;6.412;2022-10-15T13:14:28;18.10;99.90
51486;DHT22;37565;51.352;6.412;2022-10-15T13:16:58;18.10;99.90
51486;DHT22;37565;51.352;6.412;2022-10-15T13:19:30;18.10;99.90
51486;DHT22;37565;51.352;6.412;2022-10-15T13:22:00;18.10;99.90
51486;DHT22;37565;51.352;6.412;2022-10-15T13:24:37;18.10;99.90
51486;DHT22;37565;51.352;6.412;2022-10-15T13:27:13;18.10;99.90
51486;DHT22;37565;51.352;6.412;2022-10-15T13:29:52;18.10;99.90
51486;DHT22;37565;51.352;6.412;2022-10-15T13:32:21;18.10;99.90
51486;DHT22;37565;51.352;6.412;2022-10-15T13:34:51;18.10;99.90
51486;DHT22;37565;51.352;6.412;2022-10-15T13:37:23;18.10;99.90
51486;DHT22;37565;51.352;6.412;2022-10-15T13:39:54;18.10;99.90
51486;DHT22;37565;51.352;6.412;2022-10-15T13:42:23;18.20;99.90
51486;DHT22;37565;51.352;6.412;2022-10-15T13:44:57;18.10;99.90
51486;DHT22;37565;51.352;6.412;2022-10-15T13:47:29;18.10;99.90
51486;DHT22;37565;51.352;6.412;2022-10-15T13:50:21;18.10;99.90
51486;DHT22;37565;51.352;6.412;2022-10-15T13:52:52;18.10;99.90
51486;DHT22;37565;51.352;6.412;2022-10-15T13:55:23;18.10;99.90
51486;DHT22;37565;51.352;6.412;2022-10-15T13:57:56;18.10;99.90
51486;DHT22;37565;51.352;6.412;2022-10-15T14:00:28;18.10;99.90
51486;DHT22;37565;51.352;6.412;2022-10-15T14:03:06;18.10;99.90
51486;DHT22;37565;51.352;6.412;2022-10-15T14:05:36;18.10;99.90
51486;DHT22;37565;51.352;6.412;2022-10-15T14:08:04;18.10;99.90
51486;DHT22;37565;51.352;6.412;2022-10-15T14:10:32;18.10;99.90
51486;DHT22;37565;51.352;6.412;2022-10-15T14:13:00;18.10;99.90
51486;DHT22;37565;51.352;6.412;2022-10-15T14:15:42;18.10;99.90
51486;DHT22;37565;51.352;6.412;2022-10-15T14:18:12;18.10;99.90
51486;DHT22;37565;51.352;6.412;2022-10-15T14:20:44;18.10;99.90
51486;DHT22;37565;51.352;6.412;2022-10-15T14:23:20;18.10;99.90
51486;DHT22;37565;51.352;6.412;2022-10-15T14:25:52;18.10;99.90
51486;DHT22;37565;51.352;6.412;2022-10-15T14:28:23;18.10;99.90
51486;DHT22;37565;51.352;6.412;2022-10-15T14:30:51;18.10;99.90
51486;DHT22;37565;51.352;6.412;2022-10-15T14:33:31;18.10;99.90
51486;DHT22;37565;51.352;6.412;2022-10-15T14:36:07;18.10;99.90
51486;DHT22;37565;51.352;6.412;2022-10-15T14:38:35;18.10;99.90
51486;DHT22;37565;51.352;6.412;2022-10-15T14:41:05;18.10;99.90
51486;DHT22;37565;51.352;6.412;2022-10-15T14:43:44;18.20;99.90
51486;DHT22;37565;51.352;6.412;2022-10-15T14:46:15;18.10;99.90
51486;DHT22;37565;51.352;6.412;2022-10-15T14:48:44;18.10;99.90
51486;DHT22;37565;51.352;6.412;2022-10-15T14:51:18;18.20;99.90
51486;DHT22;37565;51.352;6.412;2022-10-15T14:53:49;18.10;99.90
51486;DHT22;37565;51.352;6.412;2022-10-15T14:56:20;18.10;99.90
51486;DHT22;37565;51.352;6.412;2022-10-15T14:58:51;18.20;99.90
51486;DHT22;37565;51.352;6.412;2022-10-15T15:01:22;18.20;99.90
51486;DHT22;37565;51.352;6.412;2022-10-15T15:03:54;18.10;99.90
51486;DHT22;37565;51.352;6.412;2022-10-15T15:06:24;18.20;99.90
51486;DHT22;37565;51.352;6.412;2022-10-15T15:08:52;18.20;99.90
51486;DHT22;37565;51.352;6.412;2022-10-15T15:11:21;18.20;99.90
51486;DHT22;37565;51.352;6.412;2022-10-15T15:13:51;18.20;99.90
51486;DHT22;37565;51.352;6.412;2022-10-15T15:16:19;18.10;99.90
51486;DHT22;37565;51.352;6.412;2022-10-15T15:18:47;18.20;99.90
51486;DHT22;37565;51.352;6.412;2022-10-15T15:21:19;18.20;99.90
51486;DHT22;37565;51.352;6.412;2022-10-15T15:23:50;18.20;99.90
51486;DHT22;37565;51.352;6.412;2022-10-15T15:26:18;18.20;99.90
51486;DHT22;37565;51.352;6.412;2022-10-15T15:28:46;18.20;99.90
51486;DHT22;37565;51.352;6.412;2022-10-15T15:31:16;18.20;99.90
51486;DHT22;37565;51.352;6.412;2022-10-15T15:33:44;18.20;99.90
51486;DHT22;37565;51.352;6.412;2022-10-15T15:36:14;18.20;99.90
51486;DHT22;37565;51.352;6.412;2022-10-15T15:38:50;18.20;99.90
51486;DHT22;37565;51.352;6.412;2022-10-15T15:41:21;18.20;99.90
51486;DHT22;37565;51.352;6.412;2022-10-15T15:43:50;18.20;99.90
51486;DHT22;37565;51.352;6.412;2022-10-15T15:46:19;18.20;99.90
51486;DHT22;37565;51.352;6.412;2022-10-15T15:48:47;18.20;99.90
51486;DHT22;37565;51.352;6.412;2022-10-15T15:51:19;18.20;99.90
51486;DHT22;37565;51.352;6.412;2022-10-15T15:53:48;18.20;99.90
51486;DHT22;37565;51.352;6.412;2022-10-15T15:56:17;18.20;99.90
51486;DHT22;37565;51.352;6.412;2022-10-15T15:58:45;18.20;99.90
51486;DHT22;37565;51.352;6.412;2022-10-15T16:01:16;18.20;99.90
51486;DHT22;37565;51.352;6.412;2022-10-15T16:03:44;18.20;99.90
51486;DHT22;37565;51.352;6.412;2022-10-15T16:06:12;18.20;99.90